This is the latest recevied weather packets stored in our database for station/object KM4LTG. If no packets are shown the sender has not sent any weather packets the latest 10 day(s).
| Time | Temp. | Humidity | Pressure | Rain* | Wind** | Luminosity | Snow |
|---|---|---|---|---|---|---|---|
| 1777601007 | 24.44° C | 80% | 1013.4 hPa | 0 mm | - | - | - |
| 1777600487 | 24.44° C | 80% | 1013.4 hPa | 0 mm | - | - | - |
| 1777584921 | 27.22° C | 70% | 1012.3 hPa | 0 mm | - | - | - |
| 1777584346 | 27.22° C | 72% | 1012.3 hPa | 0 mm | - | - | - |
| 1777584096 | 27.22° C | 74% | 1012.4 hPa | 0 mm | - | - | - |
| 1777583812 | 26.67° C | 74% | 1012.4 hPa | 0 mm | - | - | - |
| 1777583556 | 26.67° C | 73% | 1012.6 hPa | 0 mm | - | - | - |
| 1777580331 | 27.78° C | 69% | 1012.7 hPa | 0 mm | - | - | - |
| 1777580091 | 28.33° C | 69% | 1012.9 hPa | 0 mm | - | - | - |
| 1777579831 | 28.33° C | 69% | 1012.9 hPa | 0 mm | - | - | - |
| 1777579563 | 28.33° C | 70% | 1012.8 hPa | 0 mm | - | - | - |
| 1777579295 | 28.33° C | 70% | 1012.9 hPa | 0 mm | - | - | - |
| 1777578241 | 27.78° C | 70% | 1013.1 hPa | 0 mm | - | - | - |
| 1777577946 | 27.22° C | 72% | 1013.1 hPa | 0 mm | - | - | - |
| 1777577381 | 27.78° C | 70% | 1013.2 hPa | 0 mm | - | - | - |
| 1777577082 | 28.33° C | 69% | 1013.2 hPa | 0 mm | - | - | - |
| 1777576801 | 28.33° C | 70% | 1013.1 hPa | 0 mm | - | - | - |
| 1777576519 | 27.78° C | 69% | 1013.3 hPa | 0 mm | - | - | - |
| 1777575982 | 27.78° C | 70% | 1013.1 hPa | 0 mm | - | - | - |
| 1777573826 | 27.22° C | 72% | 1013.7 hPa | 0 mm | - | - | - |
| 1777573541 | 27.22° C | 72% | 1013.5 hPa | 0 mm | - | - | - |
| 1777571946 | 27.78° C | 71% | 1013.7 hPa | 0 mm | - | - | - |
| 1777571676 | 27.78° C | 71% | 1013.6 hPa | 0 mm | - | - | - |
| 1777571396 | 27.78° C | 71% | 1013.7 hPa | 0 mm | - | - | - |
| 1777570606 | 28.33° C | 71% | 1013.9 hPa | 0 mm | - | - | - |
* Rain latest hour (hover to see other rain measurements)
** Current wind speed in m/s (hover to see current wind gust speed)